Agri, Turkey

3:41 PM EEST on September 30, 2014 (GMT +0300)
Agri | Change Station
CLOSE
Current Station
Airport
Location: AGRI AIRPORT,
Elevation: 5463 ft
Nearby Weather Stations

Elev 5463 ft 39.65 °N, 43.03 °E | Updated 51 minutes ago

Mostly Cloudy
Mostly Cloudy
55 °F
Feels Like 55 °F
N
15
Wind Variable Wind from NE

Today
High -- | Low -- °F
--% Chance of Precip.
Yesterday
High -- | Low -- °F
Precip. -- in
6:02 AM 5:52 PM
Waxing Crescent, 36% visible
Pressure 30.15 in
Visibility 6.2 miles
Clouds Few 3000 ft
Mostly Cloudy 3500 ft
Dew Point 45 °F
Humidity 67%
Rainfall 0.00 in
Snow Depth Not available.
UV 2 out of 12
Pollen Not available.
Air Quality Not available.
Flu Activity Not available.
METAR LTCO 301150Z 04013KT 9999 FEW030CB BKN035 13/07 Q1021 RETSRA

More Conditions Fewer Conditions

Pressure 30.15 in
Visibility 6.2 miles
Clouds Few 3000 ft
Mostly Cloudy 3500 ft
Dew Point 45 °F
Humidity 67%
Rainfall 0.00 in
Snow Depth Not available.
UV 2 out of 12
Pollen Not available.
Air Quality Not available.
Flu Activity Not available.
METAR LTCO 301150Z 04013KT 9999 FEW030CB BKN035 13/07 Q1021 RETSRA

More Conditions Fewer Conditions

10-Day Weather Forecast

Almanac

Astronomy

Sep. 30, 2014 Rise Set
Actual Time 6:02 AM EEST 5:52 PM EEST
Civil Twilight 5:35 AM EEST 6:19 PM EEST
Nautical Twilight 5:04 AM EEST 6:50 PM EEST
Astronomical Twilight 4:32 AM EEST 7:22 PM EEST
Moon 11:49 AM EEST 10:01 PM EEST
Length of Visible Light 12h 43m
Length of Day
11h 49m
Tomorrow will be 2m 35s shorter.
Waxing Crescent, 36% of the Moon is Illuminated
Today
Waxing Crescent
Oct 1
First Quarter
Oct 8
Full
Oct 15
Last Quarter
Oct 23
New

Yesterday's Extremes

Country Highs Country Lows

Community

WunderPhotos

Upload Photos

1,757,625 photos uploaded!

Nearby

Snow Depth

Not available.

Earthquake Activity

City Distance Mag. Time & Date
No recent earthquake activity has been reported nearby.
Minimum magnitude displayed is 2.5.

Coastal Water Temperatures

Place Temperature
No Stations Reporting

Nearby Weather Stations